sensor_id;sensor_type;location;lat;lon;timestamp;P1;durP1;ratioP1;P2;durP2;ratioP2
19257;SDS011;9763;48.780;9.212;2024-03-02T00:03:14;3.53;;;3.17;;
19257;SDS011;9763;48.780;9.212;2024-03-02T00:06:39;3.37;;;2.80;;
19257;SDS011;9763;48.780;9.212;2024-03-02T00:10:04;3.20;;;2.63;;
19257;SDS011;9763;48.780;9.212;2024-03-02T00:13:34;2.87;;;2.30;;
19257;SDS011;9763;48.780;9.212;2024-03-02T00:16:59;3.27;;;2.70;;
19257;SDS011;9763;48.780;9.212;2024-03-02T00:20:23;2.97;;;2.67;;
19257;SDS011;9763;48.780;9.212;2024-03-02T00:23:50;3.67;;;3.20;;
19257;SDS011;9763;48.780;9.212;2024-03-02T00:27:14;3.17;;;2.87;;
19257;SDS011;9763;48.780;9.212;2024-03-02T00:30:57;4.00;;;3.50;;
19257;SDS011;9763;48.780;9.212;2024-03-02T00:34:24;3.90;;;3.23;;
19257;SDS011;9763;48.780;9.212;2024-03-02T00:37:48;4.20;;;3.40;;
19257;SDS011;9763;48.780;9.212;2024-03-02T00:41:16;5.90;;;3.17;;
19257;SDS011;9763;48.780;9.212;2024-03-02T00:44:45;3.93;;;3.43;;
19257;SDS011;9763;48.780;9.212;2024-03-02T00:48:09;3.90;;;3.43;;
19257;SDS011;9763;48.780;9.212;2024-03-02T00:51:33;4.03;;;3.67;;
19257;SDS011;9763;48.780;9.212;2024-03-02T00:54:57;3.93;;;3.53;;
19257;SDS011;9763;48.780;9.212;2024-03-02T00:58:23;3.57;;;3.20;;
19257;SDS011;9763;48.780;9.212;2024-03-02T01:01:47;3.20;;;2.90;;
19257;SDS011;9763;48.780;9.212;2024-03-02T01:05:11;3.30;;;3.00;;
19257;SDS011;9763;48.780;9.212;2024-03-02T01:08:35;4.20;;;3.50;;
19257;SDS011;9763;48.780;9.212;2024-03-02T01:12:00;3.80;;;2.70;;
19257;SDS011;9763;48.780;9.212;2024-03-02T01:15:25;3.57;;;3.07;;
19257;SDS011;9763;48.780;9.212;2024-03-02T01:18:49;6.80;;;3.20;;
19257;SDS011;9763;48.780;9.212;2024-03-02T01:22:13;4.00;;;3.33;;
19257;SDS011;9763;48.780;9.212;2024-03-02T01:25:37;4.00;;;3.07;;
19257;SDS011;9763;48.780;9.212;2024-03-02T01:29:01;3.60;;;3.20;;
19257;SDS011;9763;48.780;9.212;2024-03-02T01:32:26;6.40;;;3.90;;
19257;SDS011;9763;48.780;9.212;2024-03-02T01:35:49;5.83;;;3.87;;
19257;SDS011;9763;48.780;9.212;2024-03-02T01:39:13;3.47;;;3.13;;
19257;SDS011;9763;48.780;9.212;2024-03-02T01:42:37;3.90;;;3.20;;
19257;SDS011;9763;48.780;9.212;2024-03-02T01:46:01;4.03;;;3.40;;
19257;SDS011;9763;48.780;9.212;2024-03-02T01:49:27;2.97;;;2.67;;
19257;SDS011;9763;48.780;9.212;2024-03-02T01:52:50;3.50;;;3.20;;
19257;SDS011;9763;48.780;9.212;2024-03-02T01:56:14;2.60;;;2.40;;
19257;SDS011;9763;48.780;9.212;2024-03-02T01:59:37;3.83;;;2.90;;
19257;SDS011;9763;48.780;9.212;2024-03-02T02:03:01;2.90;;;2.63;;
19257;SDS011;9763;48.780;9.212;2024-03-02T02:06:26;3.40;;;2.63;;
19257;SDS011;9763;48.780;9.212;2024-03-02T02:09:51;2.97;;;2.67;;
19257;SDS011;9763;48.780;9.212;2024-03-02T02:13:14;2.90;;;2.23;;
19257;SDS011;9763;48.780;9.212;2024-03-02T02:16:38;2.80;;;2.50;;
19257;SDS011;9763;48.780;9.212;2024-03-02T02:20:02;2.57;;;2.37;;
19257;SDS011;9763;48.780;9.212;2024-03-02T02:23:29;2.70;;;2.43;;
19257;SDS011;9763;48.780;9.212;2024-03-02T02:26:52;3.00;;;2.70;;
19257;SDS011;9763;48.780;9.212;2024-03-02T02:30:18;3.60;;;2.80;;
19257;SDS011;9763;48.780;9.212;2024-03-02T02:33:43;2.47;;;2.27;;
19257;SDS011;9763;48.780;9.212;2024-03-02T02:37:07;3.10;;;2.53;;
19257;SDS011;9763;48.780;9.212;2024-03-02T02:40:32;2.60;;;2.37;;
19257;SDS011;9763;48.780;9.212;2024-03-02T02:43:55;3.10;;;2.80;;
19257;SDS011;9763;48.780;9.212;2024-03-02T02:47:19;4.50;;;3.17;;
19257;SDS011;9763;48.780;9.212;2024-03-02T02:50:43;3.73;;;3.23;;
19257;SDS011;9763;48.780;9.212;2024-03-02T02:54:06;3.37;;;3.00;;
19257;SDS011;9763;48.780;9.212;2024-03-02T02:57:32;4.67;;;3.50;;
19257;SDS011;9763;48.780;9.212;2024-03-02T03:00:59;3.93;;;3.53;;
19257;SDS011;9763;48.780;9.212;2024-03-02T03:04:22;3.07;;;2.67;;
19257;SDS011;9763;48.780;9.212;2024-03-02T03:07:46;3.40;;;3.10;;
19257;SDS011;9763;48.780;9.212;2024-03-02T03:11:12;2.50;;;2.30;;
19257;SDS011;9763;48.780;9.212;2024-03-02T03:14:37;3.20;;;2.70;;
19257;SDS011;9763;48.780;9.212;2024-03-02T03:18:03;3.43;;;3.03;;
19257;SDS011;9763;48.780;9.212;2024-03-02T03:21:27;3.00;;;2.70;;
19257;SDS011;9763;48.780;9.212;2024-03-02T03:24:51;2.63;;;2.43;;
19257;SDS011;9763;48.780;9.212;2024-03-02T03:28:15;3.67;;;3.00;;
19257;SDS011;9763;48.780;9.212;2024-03-02T03:31:41;2.87;;;2.60;;
19257;SDS011;9763;48.780;9.212;2024-03-02T03:35:05;3.80;;;3.30;;
19257;SDS011;9763;48.780;9.212;2024-03-02T03:38:30;3.27;;;2.90;;
19257;SDS011;9763;48.780;9.212;2024-03-02T03:41:54;3.50;;;3.00;;
19257;SDS011;9763;48.780;9.212;2024-03-02T03:45:18;3.37;;;2.90;;
19257;SDS011;9763;48.780;9.212;2024-03-02T03:48:44;5.00;;;3.90;;
19257;SDS011;9763;48.780;9.212;2024-03-02T03:52:07;3.23;;;2.90;;
19257;SDS011;9763;48.780;9.212;2024-03-02T03:55:31;3.50;;;2.63;;
19257;SDS011;9763;48.780;9.212;2024-03-02T03:58:54;3.23;;;2.93;;
19257;SDS011;9763;48.780;9.212;2024-03-02T04:02:17;3.90;;;3.50;;
19257;SDS011;9763;48.780;9.212;2024-03-02T04:05:42;2.87;;;2.63;;
19257;SDS011;9763;48.780;9.212;2024-03-02T04:09:06;4.37;;;3.40;;
19257;SDS011;9763;48.780;9.212;2024-03-02T04:12:30;3.23;;;2.93;;
19257;SDS011;9763;48.780;9.212;2024-03-02T04:15:54;3.97;;;3.10;;
19257;SDS011;9763;48.780;9.212;2024-03-02T04:19:18;3.70;;;3.07;;
19257;SDS011;9763;48.780;9.212;2024-03-02T04:22:43;3.77;;;2.90;;
19257;SDS011;9763;48.780;9.212;2024-03-02T04:26:06;3.50;;;3.07;;
19257;SDS011;9763;48.780;9.212;2024-03-02T04:29:30;4.10;;;3.57;;
19257;SDS011;9763;48.780;9.212;2024-03-02T04:32:53;3.07;;;2.77;;
19257;SDS011;9763;48.780;9.212;2024-03-02T04:36:17;4.77;;;3.53;;
19257;SDS011;9763;48.780;9.212;2024-03-02T04:39:42;3.10;;;2.70;;
19257;SDS011;9763;48.780;9.212;2024-03-02T04:43:05;3.30;;;2.90;;
19257;SDS011;9763;48.780;9.212;2024-03-02T04:46:31;4.50;;;3.50;;
19257;SDS011;9763;48.780;9.212;2024-03-02T04:49:54;5.03;;;3.90;;
19257;SDS011;9763;48.780;9.212;2024-03-02T04:53:18;3.80;;;3.10;;
19257;SDS011;9763;48.780;9.212;2024-03-02T04:56:43;3.40;;;3.03;;
19257;SDS011;9763;48.780;9.212;2024-03-02T05:00:12;3.87;;;2.83;;
19257;SDS011;9763;48.780;9.212;2024-03-02T05:03:36;3.07;;;2.60;;
19257;SDS011;9763;48.780;9.212;2024-03-02T05:06:59;3.10;;;2.70;;
19257;SDS011;9763;48.780;9.212;2024-03-02T05:10:23;3.83;;;3.03;;
19257;SDS011;9763;48.780;9.212;2024-03-02T05:13:48;3.07;;;2.70;;
19257;SDS011;9763;48.780;9.212;2024-03-02T05:17:11;3.67;;;3.30;;
19257;SDS011;9763;48.780;9.212;2024-03-02T05:20:35;3.63;;;3.17;;
19257;SDS011;9763;48.780;9.212;2024-03-02T05:23:58;4.33;;;3.57;;
19257;SDS011;9763;48.780;9.212;2024-03-02T05:27:22;4.90;;;3.40;;
19257;SDS011;9763;48.780;9.212;2024-03-02T05:30:47;3.43;;;3.13;;
19257;SDS011;9763;48.780;9.212;2024-03-02T05:34:11;3.70;;;3.23;;
19257;SDS011;9763;48.780;9.212;2024-03-02T05:37:35;3.50;;;2.77;;
19257;SDS011;9763;48.780;9.212;2024-03-02T05:40:59;4.50;;;3.83;;
19257;SDS011;9763;48.780;9.212;2024-03-02T05:44:22;4.23;;;3.13;;
19257;SDS011;9763;48.780;9.212;2024-03-02T05:47:48;3.90;;;3.50;;
19257;SDS011;9763;48.780;9.212;2024-03-02T05:51:11;5.93;;;3.60;;
19257;SDS011;9763;48.780;9.212;2024-03-02T05:54:35;4.90;;;3.77;;
19257;SDS011;9763;48.780;9.212;2024-03-02T05:57:58;4.00;;;3.57;;
19257;SDS011;9763;48.780;9.212;2024-03-02T06:01:37;3.80;;;3.40;;
19257;SDS011;9763;48.780;9.212;2024-03-02T06:05:02;4.50;;;3.67;;
19257;SDS011;9763;48.780;9.212;2024-03-02T06:08:26;5.80;;;5.07;;
19257;SDS011;9763;48.780;9.212;2024-03-02T06:11:50;3.57;;;3.20;;
19257;SDS011;9763;48.780;9.212;2024-03-02T06:15:14;3.87;;;3.47;;
19257;SDS011;9763;48.780;9.212;2024-03-02T06:18:39;3.73;;;3.43;;
19257;SDS011;9763;48.780;9.212;2024-03-02T06:22:04;4.77;;;4.30;;
19257;SDS011;9763;48.780;9.212;2024-03-02T06:25:27;4.80;;;3.33;;
19257;SDS011;9763;48.780;9.212;2024-03-02T06:28:51;4.60;;;3.70;;
19257;SDS011;9763;48.780;9.212;2024-03-02T06:32:14;5.50;;;3.90;;
19257;SDS011;9763;48.780;9.212;2024-03-02T06:35:38;5.63;;;5.00;;
19257;SDS011;9763;48.780;9.212;2024-03-02T06:39:03;5.63;;;4.63;;
19257;SDS011;9763;48.780;9.212;2024-03-02T06:42:27;5.00;;;4.30;;
19257;SDS011;9763;48.780;9.212;2024-03-02T06:45:54;3.90;;;3.30;;
19257;SDS011;9763;48.780;9.212;2024-03-02T06:49:18;6.03;;;4.07;;
19257;SDS011;9763;48.780;9.212;2024-03-02T06:52:42;5.60;;;3.77;;
19257;SDS011;9763;48.780;9.212;2024-03-02T06:56:07;5.57;;;4.07;;
19257;SDS011;9763;48.780;9.212;2024-03-02T06:59:31;8.63;;;3.63;;
19257;SDS011;9763;48.780;9.212;2024-03-02T07:02:55;4.93;;;3.90;;
19257;SDS011;9763;48.780;9.212;2024-03-02T07:06:18;6.17;;;4.23;;
19257;SDS011;9763;48.780;9.212;2024-03-02T07:09:42;5.07;;;3.60;;
19257;SDS011;9763;48.780;9.212;2024-03-02T07:13:07;4.90;;;4.40;;
19257;SDS011;9763;48.780;9.212;2024-03-02T07:16:31;4.67;;;4.03;;
19257;SDS011;9763;48.780;9.212;2024-03-02T07:19:56;5.17;;;4.50;;
19257;SDS011;9763;48.780;9.212;2024-03-02T07:23:20;4.30;;;3.90;;
19257;SDS011;9763;48.780;9.212;2024-03-02T07:26:45;4.30;;;3.90;;
19257;SDS011;9763;48.780;9.212;2024-03-02T07:30:14;4.60;;;3.87;;
19257;SDS011;9763;48.780;9.212;2024-03-02T07:33:39;4.03;;;3.40;;
19257;SDS011;9763;48.780;9.212;2024-03-02T07:37:02;4.90;;;3.90;;
19257;SDS011;9763;48.780;9.212;2024-03-02T07:40:27;8.10;;;3.73;;
19257;SDS011;9763;48.780;9.212;2024-03-02T07:43:51;4.70;;;4.20;;
19257;SDS011;9763;48.780;9.212;2024-03-02T07:47:16;4.27;;;3.87;;
19257;SDS011;9763;48.780;9.212;2024-03-02T07:50:40;4.23;;;3.80;;
19257;SDS011;9763;48.780;9.212;2024-03-02T07:54:04;5.10;;;3.90;;
19257;SDS011;9763;48.780;9.212;2024-03-02T07:57:28;4.30;;;3.90;;
19257;SDS011;9763;48.780;9.212;2024-03-02T08:00:51;5.67;;;4.80;;
19257;SDS011;9763;48.780;9.212;2024-03-02T08:04:17;4.23;;;3.83;;
19257;SDS011;9763;48.780;9.212;2024-03-02T08:07:41;4.10;;;3.70;;
19257;SDS011;9763;48.780;9.212;2024-03-02T08:11:07;3.73;;;3.13;;
19257;SDS011;9763;48.780;9.212;2024-03-02T08:14:30;5.00;;;4.17;;
19257;SDS011;9763;48.780;9.212;2024-03-02T08:17:54;4.20;;;3.53;;
19257;SDS011;9763;48.780;9.212;2024-03-02T08:21:19;3.70;;;3.23;;
19257;SDS011;9763;48.780;9.212;2024-03-02T08:24:43;4.60;;;3.10;;
19257;SDS011;9763;48.780;9.212;2024-03-02T08:28:07;3.50;;;3.20;;
19257;SDS011;9763;48.780;9.212;2024-03-02T08:31:31;4.47;;;3.53;;
19257;SDS011;9763;48.780;9.212;2024-03-02T08:34:54;4.13;;;3.10;;
19257;SDS011;9763;48.780;9.212;2024-03-02T08:38:19;3.47;;;3.17;;
19257;SDS011;9763;48.780;9.212;2024-03-02T08:41:44;4.70;;;3.40;;
19257;SDS011;9763;48.780;9.212;2024-03-02T08:45:08;3.97;;;3.13;;
19257;SDS011;9763;48.780;9.212;2024-03-02T08:48:32;3.27;;;2.97;;
19257;SDS011;9763;48.780;9.212;2024-03-02T08:51:56;3.70;;;3.40;;
19257;SDS011;9763;48.780;9.212;2024-03-02T08:55:21;4.20;;;3.80;;
19257;SDS011;9763;48.780;9.212;2024-03-02T08:58:44;3.97;;;3.57;;
19257;SDS011;9763;48.780;9.212;2024-03-02T09:02:08;3.67;;;3.37;;
19257;SDS011;9763;48.780;9.212;2024-03-02T09:05:32;3.87;;;3.57;;
19257;SDS011;9763;48.780;9.212;2024-03-02T09:08:56;3.43;;;3.03;;
19257;SDS011;9763;48.780;9.212;2024-03-02T09:12:21;3.30;;;3.00;;
19257;SDS011;9763;48.780;9.212;2024-03-02T09:15:44;3.40;;;3.10;;
19257;SDS011;9763;48.780;9.212;2024-03-02T09:19:08;3.27;;;2.90;;
19257;SDS011;9763;48.780;9.212;2024-03-02T09:22:32;2.80;;;2.60;;
19257;SDS011;9763;48.780;9.212;2024-03-02T09:25:56;3.00;;;2.70;;
19257;SDS011;9763;48.780;9.212;2024-03-02T09:29:21;2.50;;;2.30;;
19257;SDS011;9763;48.780;9.212;2024-03-02T09:32:44;2.63;;;2.43;;
19257;SDS011;9763;48.780;9.212;2024-03-02T09:36:16;3.10;;;2.90;;
19257;SDS011;9763;48.780;9.212;2024-03-02T09:39:43;2.90;;;2.70;;
19257;SDS011;9763;48.780;9.212;2024-03-02T09:43:07;2.60;;;2.40;;
19257;SDS011;9763;48.780;9.212;2024-03-02T09:46:33;2.27;;;2.07;;
19257;SDS011;9763;48.780;9.212;2024-03-02T09:49:58;1.80;;;1.60;;
19257;SDS011;9763;48.780;9.212;2024-03-02T09:53:22;1.70;;;1.57;;
19257;SDS011;9763;48.780;9.212;2024-03-02T09:56:48;1.93;;;1.67;;
19257;SDS011;9763;48.780;9.212;2024-03-02T10:00:14;1.70;;;1.53;;
19257;SDS011;9763;48.780;9.212;2024-03-02T10:03:39;2.13;;;1.93;;
19257;SDS011;9763;48.780;9.212;2024-03-02T10:07:10;2.50;;;2.30;;
19257;SDS011;9763;48.780;9.212;2024-03-02T10:10:36;2.10;;;1.90;;
19257;SDS011;9763;48.780;9.212;2024-03-02T10:14:06;2.20;;;2.00;;
19257;SDS011;9763;48.780;9.212;2024-03-02T10:17:32;2.10;;;1.87;;
19257;SDS011;9763;48.780;9.212;2024-03-02T10:20:57;2.30;;;2.10;;
19257;SDS011;9763;48.780;9.212;2024-03-02T10:24:37;2.03;;;1.87;;
19257;SDS011;9763;48.780;9.212;2024-03-02T10:28:03;1.80;;;1.70;;
19257;SDS011;9763;48.780;9.212;2024-03-02T10:31:28;1.87;;;1.70;;
19257;SDS011;9763;48.780;9.212;2024-03-02T10:34:52;1.70;;;1.60;;
19257;SDS011;9763;48.780;9.212;2024-03-02T10:38:16;2.07;;;1.87;;
19257;SDS011;9763;48.780;9.212;2024-03-02T10:41:41;2.03;;;1.83;;
19257;SDS011;9763;48.780;9.212;2024-03-02T10:45:05;2.30;;;1.87;;
19257;SDS011;9763;48.780;9.212;2024-03-02T10:48:32;2.37;;;2.10;;
19257;SDS011;9763;48.780;9.212;2024-03-02T10:51:59;2.00;;;1.80;;
19257;SDS011;9763;48.780;9.212;2024-03-02T10:55:25;2.00;;;1.80;;
19257;SDS011;9763;48.780;9.212;2024-03-02T10:58:49;2.03;;;1.80;;
19257;SDS011;9763;48.780;9.212;2024-03-02T11:02:24;2.13;;;1.67;;
19257;SDS011;9763;48.780;9.212;2024-03-02T11:05:51;2.00;;;1.80;;
19257;SDS011;9763;48.780;9.212;2024-03-02T11:09:16;2.03;;;1.70;;
19257;SDS011;9763;48.780;9.212;2024-03-02T11:12:47;1.97;;;1.77;;
19257;SDS011;9763;48.780;9.212;2024-03-02T11:16:22;2.20;;;1.90;;
19257;SDS011;9763;48.780;9.212;2024-03-02T11:19:57;1.93;;;1.67;;
19257;SDS011;9763;48.780;9.212;2024-03-02T11:23:21;5.20;;;4.10;;
19257;SDS011;9763;48.780;9.212;2024-03-02T11:26:55;4.90;;;4.37;;
19257;SDS011;9763;48.780;9.212;2024-03-02T11:34:23;2.20;;;2.00;;
19257;SDS011;9763;48.780;9.212;2024-03-02T11:37:52;2.57;;;2.00;;
19257;SDS011;9763;48.780;9.212;2024-03-02T11:41:16;1.80;;;1.60;;
19257;SDS011;9763;48.780;9.212;2024-03-02T11:44:40;1.70;;;1.50;;
19257;SDS011;9763;48.780;9.212;2024-03-02T11:48:08;1.70;;;1.37;;
19257;SDS011;9763;48.780;9.212;2024-03-02T11:51:38;2.93;;;1.70;;
19257;SDS011;9763;48.780;9.212;2024-03-02T11:55:16;1.70;;;1.33;;
19257;SDS011;9763;48.780;9.212;2024-03-02T11:58:42;1.63;;;1.17;;
19257;SDS011;9763;48.780;9.212;2024-03-02T12:02:12;1.70;;;1.40;;
19257;SDS011;9763;48.780;9.212;2024-03-02T12:05:41;1.47;;;1.10;;
19257;SDS011;9763;48.780;9.212;2024-03-02T12:09:05;1.40;;;0.90;;
19257;SDS011;9763;48.780;9.212;2024-03-02T12:12:32;1.60;;;1.10;;
19257;SDS011;9763;48.780;9.212;2024-03-02T12:15:56;1.43;;;0.97;;
19257;SDS011;9763;48.780;9.212;2024-03-02T12:19:21;1.40;;;0.90;;
19257;SDS011;9763;48.780;9.212;2024-03-02T12:22:46;1.40;;;0.90;;
19257;SDS011;9763;48.780;9.212;2024-03-02T12:26:09;1.70;;;1.13;;
19257;SDS011;9763;48.780;9.212;2024-03-02T12:29:33;1.43;;;1.00;;
19257;SDS011;9763;48.780;9.212;2024-03-02T12:32:57;1.60;;;1.30;;
19257;SDS011;9763;48.780;9.212;2024-03-02T12:36:21;1.73;;;0.97;;
19257;SDS011;9763;48.780;9.212;2024-03-02T12:39:46;1.40;;;1.10;;
19257;SDS011;9763;48.780;9.212;2024-03-02T12:43:10;1.40;;;0.90;;
19257;SDS011;9763;48.780;9.212;2024-03-02T12:46:33;1.30;;;0.93;;
19257;SDS011;9763;48.780;9.212;2024-03-02T12:49:58;1.27;;;0.80;;
19257;SDS011;9763;48.780;9.212;2024-03-02T12:53:22;1.50;;;0.93;;
19257;SDS011;9763;48.780;9.212;2024-03-02T12:56:47;1.30;;;0.90;;
19257;SDS011;9763;48.780;9.212;2024-03-02T13:00:11;3.20;;;1.00;;
19257;SDS011;9763;48.780;9.212;2024-03-02T13:03:36;1.40;;;1.00;;
19257;SDS011;9763;48.780;9.212;2024-03-02T13:07:01;1.50;;;0.90;;
19257;SDS011;9763;48.780;9.212;2024-03-02T13:10:26;1.40;;;0.93;;
19257;SDS011;9763;48.780;9.212;2024-03-02T13:13:52;2.23;;;0.90;;
19257;SDS011;9763;48.780;9.212;2024-03-02T13:17:15;1.30;;;0.90;;
19257;SDS011;9763;48.780;9.212;2024-03-02T13:20:40;1.30;;;0.90;;
19257;SDS011;9763;48.780;9.212;2024-03-02T13:24:04;1.40;;;0.90;;
19257;SDS011;9763;48.780;9.212;2024-03-02T13:27:29;1.27;;;0.90;;
19257;SDS011;9763;48.780;9.212;2024-03-02T13:30:54;1.50;;;1.00;;
19257;SDS011;9763;48.780;9.212;2024-03-02T13:34:18;1.30;;;0.80;;
19257;SDS011;9763;48.780;9.212;2024-03-02T13:37:42;1.60;;;1.10;;
19257;SDS011;9763;48.780;9.212;2024-03-02T13:41:05;2.47;;;0.97;;
19257;SDS011;9763;48.780;9.212;2024-03-02T13:44:29;1.90;;;1.00;;
19257;SDS011;9763;48.780;9.212;2024-03-02T13:47:54;1.30;;;0.90;;
19257;SDS011;9763;48.780;9.212;2024-03-02T13:51:18;1.60;;;1.10;;
19257;SDS011;9763;48.780;9.212;2024-03-02T13:54:42;1.30;;;0.83;;
19257;SDS011;9763;48.780;9.212;2024-03-02T13:58:07;1.30;;;0.80;;
19257;SDS011;9763;48.780;9.212;2024-03-02T14:01:32;1.30;;;0.90;;
19257;SDS011;9763;48.780;9.212;2024-03-02T14:04:58;1.20;;;0.80;;
19257;SDS011;9763;48.780;9.212;2024-03-02T14:08:21;1.40;;;0.90;;
19257;SDS011;9763;48.780;9.212;2024-03-02T14:11:46;1.80;;;0.90;;
19257;SDS011;9763;48.780;9.212;2024-03-02T14:15:10;1.40;;;0.90;;
19257;SDS011;9763;48.780;9.212;2024-03-02T14:18:34;1.40;;;0.90;;
19257;SDS011;9763;48.780;9.212;2024-03-02T14:22:00;1.50;;;0.90;;
19257;SDS011;9763;48.780;9.212;2024-03-02T14:25:23;2.23;;;0.90;;
19257;SDS011;9763;48.780;9.212;2024-03-02T14:28:47;1.40;;;0.80;;
19257;SDS011;9763;48.780;9.212;2024-03-02T14:32:13;1.30;;;0.80;;
19257;SDS011;9763;48.780;9.212;2024-03-02T14:35:37;2.27;;;0.90;;
19257;SDS011;9763;48.780;9.212;2024-03-02T14:39:01;1.30;;;0.80;;
19257;SDS011;9763;48.780;9.212;2024-03-02T14:42:25;1.30;;;0.90;;
19257;SDS011;9763;48.780;9.212;2024-03-02T14:45:53;1.30;;;0.80;;
19257;SDS011;9763;48.780;9.212;2024-03-02T14:49:17;1.50;;;0.87;;
19257;SDS011;9763;48.780;9.212;2024-03-02T14:52:41;1.50;;;1.07;;
19257;SDS011;9763;48.780;9.212;2024-03-02T14:56:08;1.80;;;0.83;;
19257;SDS011;9763;48.780;9.212;2024-03-02T14:59:31;1.40;;;0.90;;
19257;SDS011;9763;48.780;9.212;2024-03-02T15:02:56;1.60;;;0.87;;
19257;SDS011;9763;48.780;9.212;2024-03-02T15:06:20;2.73;;;0.90;;
19257;SDS011;9763;48.780;9.212;2024-03-02T15:09:44;1.43;;;1.00;;
19257;SDS011;9763;48.780;9.212;2024-03-02T15:13:09;1.40;;;0.90;;
19257;SDS011;9763;48.780;9.212;2024-03-02T15:16:33;1.50;;;1.03;;
19257;SDS011;9763;48.780;9.212;2024-03-02T15:19:56;2.40;;;1.10;;
19257;SDS011;9763;48.780;9.212;2024-03-02T15:23:20;1.50;;;0.93;;
19257;SDS011;9763;48.780;9.212;2024-03-02T15:26:43;2.97;;;0.90;;
19257;SDS011;9763;48.780;9.212;2024-03-02T15:30:09;1.50;;;1.17;;
19257;SDS011;9763;48.780;9.212;2024-03-02T15:33:33;1.70;;;1.10;;
19257;SDS011;9763;48.780;9.212;2024-03-02T15:36:57;1.40;;;0.97;;
19257;SDS011;9763;48.780;9.212;2024-03-02T15:40:21;1.30;;;0.90;;
19257;SDS011;9763;48.780;9.212;2024-03-02T15:43:44;1.50;;;1.00;;
19257;SDS011;9763;48.780;9.212;2024-03-02T15:47:10;1.40;;;0.97;;
19257;SDS011;9763;48.780;9.212;2024-03-02T15:50:33;1.37;;;0.90;;
19257;SDS011;9763;48.780;9.212;2024-03-02T15:53:58;1.40;;;0.93;;
19257;SDS011;9763;48.780;9.212;2024-03-02T15:57:22;1.50;;;1.10;;
19257;SDS011;9763;48.780;9.212;2024-03-02T16:00:46;1.57;;;1.30;;
19257;SDS011;9763;48.780;9.212;2024-03-02T16:04:11;1.40;;;1.10;;
19257;SDS011;9763;48.780;9.212;2024-03-02T16:07:36;1.80;;;1.40;;
19257;SDS011;9763;48.780;9.212;2024-03-02T16:10:59;1.67;;;1.47;;
19257;SDS011;9763;48.780;9.212;2024-03-02T16:14:25;2.07;;;1.40;;
19257;SDS011;9763;48.780;9.212;2024-03-02T16:17:49;1.97;;;1.40;;
19257;SDS011;9763;48.780;9.212;2024-03-02T16:21:14;1.90;;;1.40;;
19257;SDS011;9763;48.780;9.212;2024-03-02T16:24:39;1.53;;;1.30;;
19257;SDS011;9763;48.780;9.212;2024-03-02T16:28:03;1.83;;;1.50;;
19257;SDS011;9763;48.780;9.212;2024-03-02T16:31:27;1.90;;;1.40;;
19257;SDS011;9763;48.780;9.212;2024-03-02T16:34:50;1.60;;;1.13;;
19257;SDS011;9763;48.780;9.212;2024-03-02T16:38:16;1.53;;;1.00;;
19257;SDS011;9763;48.780;9.212;2024-03-02T16:41:40;1.43;;;1.03;;
19257;SDS011;9763;48.780;9.212;2024-03-02T16:45:10;2.03;;;1.30;;
19257;SDS011;9763;48.780;9.212;2024-03-02T16:48:33;1.87;;;1.50;;
19257;SDS011;9763;48.780;9.212;2024-03-02T16:51:57;1.80;;;1.40;;
19257;SDS011;9763;48.780;9.212;2024-03-02T16:55:23;1.60;;;1.40;;
19257;SDS011;9763;48.780;9.212;2024-03-02T16:58:47;1.70;;;1.17;;
19257;SDS011;9763;48.780;9.212;2024-03-02T17:02:10;2.40;;;1.63;;
19257;SDS011;9763;48.780;9.212;2024-03-02T17:05:34;1.70;;;1.50;;
19257;SDS011;9763;48.780;9.212;2024-03-02T17:08:58;2.37;;;1.50;;
19257;SDS011;9763;48.780;9.212;2024-03-02T17:12:23;2.00;;;1.70;;
19257;SDS011;9763;48.780;9.212;2024-03-02T17:15:47;2.10;;;1.60;;
19257;SDS011;9763;48.780;9.212;2024-03-02T17:19:10;1.83;;;1.40;;
19257;SDS011;9763;48.780;9.212;2024-03-02T17:22:34;1.90;;;1.40;;
19257;SDS011;9763;48.780;9.212;2024-03-02T17:25:58;2.70;;;1.30;;
19257;SDS011;9763;48.780;9.212;2024-03-02T17:29:23;2.40;;;1.77;;
19257;SDS011;9763;48.780;9.212;2024-03-02T17:32:47;2.10;;;1.37;;
19257;SDS011;9763;48.780;9.212;2024-03-02T17:36:11;1.87;;;1.43;;
19257;SDS011;9763;48.780;9.212;2024-03-02T17:39:34;2.50;;;1.70;;
19257;SDS011;9763;48.780;9.212;2024-03-02T17:42:58;4.40;;;2.20;;
19257;SDS011;9763;48.780;9.212;2024-03-02T17:46:23;2.67;;;2.40;;
19257;SDS011;9763;48.780;9.212;2024-03-02T17:49:47;3.10;;;2.47;;
19257;SDS011;9763;48.780;9.212;2024-03-02T17:53:11;2.53;;;2.33;;
19257;SDS011;9763;48.780;9.212;2024-03-02T17:56:34;3.27;;;2.90;;
19257;SDS011;9763;48.780;9.212;2024-03-02T17:59:58;2.87;;;2.60;;
19257;SDS011;9763;48.780;9.212;2024-03-02T18:03:24;3.33;;;3.00;;
19257;SDS011;9763;48.780;9.212;2024-03-02T18:06:48;4.50;;;4.10;;
19257;SDS011;9763;48.780;9.212;2024-03-02T18:10:12;5.30;;;4.80;;
19257;SDS011;9763;48.780;9.212;2024-03-02T18:13:36;5.23;;;3.90;;
19257;SDS011;9763;48.780;9.212;2024-03-02T18:16:59;4.40;;;4.00;;
19257;SDS011;9763;48.780;9.212;2024-03-02T18:20:24;5.40;;;4.10;;
19257;SDS011;9763;48.780;9.212;2024-03-02T18:23:47;4.87;;;3.63;;
19257;SDS011;9763;48.780;9.212;2024-03-02T18:27:11;4.33;;;3.93;;
19257;SDS011;9763;48.780;9.212;2024-03-02T18:30:35;4.20;;;3.80;;
19257;SDS011;9763;48.780;9.212;2024-03-02T18:33:59;4.13;;;3.60;;
19257;SDS011;9763;48.780;9.212;2024-03-02T18:37:24;3.90;;;3.50;;
19257;SDS011;9763;48.780;9.212;2024-03-02T18:40:47;4.70;;;4.00;;
19257;SDS011;9763;48.780;9.212;2024-03-02T18:44:11;5.80;;;5.00;;
19257;SDS011;9763;48.780;9.212;2024-03-02T18:47:35;6.50;;;5.17;;
19257;SDS011;9763;48.780;9.212;2024-03-02T18:51:04;5.10;;;4.60;;
19257;SDS011;9763;48.780;9.212;2024-03-02T18:54:30;6.90;;;4.87;;
19257;SDS011;9763;48.780;9.212;2024-03-02T18:57:54;5.37;;;4.87;;
19257;SDS011;9763;48.780;9.212;2024-03-02T19:01:19;6.23;;;5.10;;
19257;SDS011;9763;48.780;9.212;2024-03-02T19:04:43;8.03;;;4.97;;
19257;SDS011;9763;48.780;9.212;2024-03-02T19:08:08;6.43;;;4.70;;
19257;SDS011;9763;48.780;9.212;2024-03-02T19:11:36;5.00;;;4.33;;
19257;SDS011;9763;48.780;9.212;2024-03-02T19:15:00;6.37;;;5.43;;
19257;SDS011;9763;48.780;9.212;2024-03-02T19:18:23;6.20;;;5.43;;
19257;SDS011;9763;48.780;9.212;2024-03-02T19:21:47;6.00;;;5.00;;
19257;SDS011;9763;48.780;9.212;2024-03-02T19:25:22;6.40;;;5.67;;
19257;SDS011;9763;48.780;9.212;2024-03-02T19:28:47;5.53;;;4.90;;
19257;SDS011;9763;48.780;9.212;2024-03-02T19:32:11;7.13;;;5.70;;
19257;SDS011;9763;48.780;9.212;2024-03-02T19:35:41;5.60;;;4.77;;
19257;SDS011;9763;48.780;9.212;2024-03-02T19:39:05;5.30;;;4.60;;
19257;SDS011;9763;48.780;9.212;2024-03-02T19:42:29;4.40;;;3.93;;
19257;SDS011;9763;48.780;9.212;2024-03-02T19:45:54;4.97;;;4.47;;
19257;SDS011;9763;48.780;9.212;2024-03-02T19:49:18;6.63;;;5.23;;
19257;SDS011;9763;48.780;9.212;2024-03-02T19:52:42;5.50;;;4.80;;
19257;SDS011;9763;48.780;9.212;2024-03-02T19:56:06;6.60;;;4.47;;
19257;SDS011;9763;48.780;9.212;2024-03-02T19:59:30;6.60;;;4.10;;
19257;SDS011;9763;48.780;9.212;2024-03-02T20:02:55;5.93;;;4.70;;
19257;SDS011;9763;48.780;9.212;2024-03-02T20:06:18;5.07;;;4.57;;
19257;SDS011;9763;48.780;9.212;2024-03-02T20:09:42;5.30;;;4.33;;
19257;SDS011;9763;48.780;9.212;2024-03-02T20:13:06;5.53;;;4.63;;
19257;SDS011;9763;48.780;9.212;2024-03-02T20:16:30;6.27;;;4.80;;
19257;SDS011;9763;48.780;9.212;2024-03-02T20:19:55;5.77;;;5.10;;
19257;SDS011;9763;48.780;9.212;2024-03-02T20:23:18;4.90;;;4.17;;
19257;SDS011;9763;48.780;9.212;2024-03-02T20:26:42;6.40;;;5.13;;
19257;SDS011;9763;48.780;9.212;2024-03-02T20:30:07;5.70;;;4.80;;
19257;SDS011;9763;48.780;9.212;2024-03-02T20:33:32;7.00;;;5.13;;
19257;SDS011;9763;48.780;9.212;2024-03-02T20:36:57;6.57;;;5.83;;
19257;SDS011;9763;48.780;9.212;2024-03-02T20:40:22;6.70;;;5.40;;
19257;SDS011;9763;48.780;9.212;2024-03-02T20:43:46;5.63;;;5.13;;
19257;SDS011;9763;48.780;9.212;2024-03-02T20:47:10;7.83;;;6.40;;
19257;SDS011;9763;48.780;9.212;2024-03-02T20:50:34;6.03;;;5.13;;
19257;SDS011;9763;48.780;9.212;2024-03-02T20:53:59;7.50;;;5.47;;
19257;SDS011;9763;48.780;9.212;2024-03-02T20:57:22;6.93;;;5.50;;